^^
Station Historical Data
Daily Summary for March 29, 2017 Units:  English    Metric   Both
« Previous Day
Next Day »
Daily Weekly Monthly Yearly Custom
  High: Low: Average:
Temperature: 55.6 °F 39.6 °F 46.3 °F
Dew Point: 42.4 °F 24.1 °F 35.4 °F
Humidity: 98% 42% 69%
Wind Speed: 7.0mph 0.0mph 2.8mph
Wind Gust: 17.0mph - -
Wind- - WNW
Pressure: 30.26 in 29.95 in -
Precipitation: 0.00 in    
Historical Graphs
 
 
Tabular Data for March 29, 2017
Time Temperature Dew Point Pressure Wind Wind Speed Wind Gust Humidity Rainfall Rate (Hourly) Conditions
00:00 42.4 °F 41.6 °F 29.96 in Calm   1.0 mph 97% 0.00 in RA
00:15 42.5 °F 41.7 °F 29.95 in Calm   1.0 mph 97% 0.00 in OVC
00:30 42.4 °F 41.6 °F 29.96 in Calm   2.0 mph 97% 0.00 in OVC
00:45 42.5 °F 41.7 °F 29.96 in Calm     97% 0.00 in OVC
01:00 42.6 °F 41.8 °F 29.96 in Calm   1.0 mph 97% 0.00 in OVC
02:15 42.9 °F 42.4 °F 29.95 in North 2.0 mph 6.0 mph 98% 0.00 in BKN
02:30 42.7 °F 41.9 °F 29.96 in NW 1.0 mph 5.0 mph 97% 0.00 in BKN
02:45 42.9 °F 42.1 °F 29.97 in NNW 3.0 mph 9.0 mph 97% 0.00 in BKN
03:00 43.0 °F 42.2 °F 29.97 in NNW 1.0 mph 7.0 mph 97% 0.00 in BKN
03:15 43.1 °F 42.3 °F 29.98 in North 1.0 mph 5.0 mph 97% 0.00 in BKN
03:30 43.0 °F 42.2 °F 29.98 in NNW 2.0 mph 7.0 mph 97% 0.00 in BKN
03:45 42.8 °F 42.0 °F 29.99 in NNW 2.0 mph 8.0 mph 97% 0.00 in BKN
04:00 42.5 °F 41.7 °F 30.00 in North 1.0 mph 8.0 mph 97% 0.00 in BKN
04:15 42.4 °F 41.3 °F 30.01 in North 1.0 mph 6.0 mph 96% 0.00 in BKN
04:30 42.5 °F 41.4 °F 30.01 in North 1.0 mph 8.0 mph 96% 0.00 in BKN
04:45 42.5 °F 40.9 °F 30.01 in NNW 2.0 mph 8.0 mph 94% 0.00 in BKN
05:00 42.5 °F 40.6 °F 30.02 in NNW 2.0 mph 12.0 mph 93% 0.00 in BKN
05:15 42.2 °F 40.0 °F 30.01 in NNW 1.0 mph 12.0 mph 92% 0.00 in BKN
05:30 42.0 °F 39.9 °F 30.02 in NNW 3.0 mph 8.0 mph 92% 0.00 in BKN
05:45 41.8 °F 39.6 °F 30.02 in NNW 3.0 mph 10.0 mph 92% 0.00 in BKN
06:00 41.6 °F 39.2 °F 30.02 in NNW 1.0 mph 8.0 mph 91% 0.00 in BKN
06:15 41.6 °F 39.2 °F 30.03 in North 1.0 mph 7.0 mph 91% 0.00 in SCT
06:30 41.5 °F 38.8 °F 30.04 in North 2.0 mph 12.0 mph 90% 0.00 in SCT
06:45 41.4 °F 38.4 °F 30.04 in North 1.0 mph 12.0 mph 89% 0.00 in SCT
07:00 40.9 °F 38.2 °F 30.05 in NNW 3.0 mph 8.0 mph 90% 0.00 in SCT
07:15 41.0 °F 38.3 °F 30.05 in NNW 1.0 mph 6.0 mph 90% 0.00 in SCT
07:30 41.2 °F 38.5 °F 30.06 in North 1.0 mph 7.0 mph 90% 0.00 in SCT
07:45 41.2 °F 38.5 °F 30.06 in North 1.0 mph 5.0 mph 90% 0.00 in SCT
08:00 41.8 °F 38.8 °F 30.07 in NNW 2.0 mph 9.0 mph 89% 0.00 in SCT
08:15 42.1 °F 39.1 °F 30.07 in NNW 3.0 mph 9.0 mph 89% 0.00 in BKN
08:30 42.0 °F 39.0 °F 30.07 in NNW 2.0 mph 10.0 mph 89% 0.00 in BKN
08:45 42.1 °F 39.1 °F 30.07 in NW 3.0 mph 8.0 mph 89% 0.00 in BKN
09:00 42.5 °F 39.2 °F 30.08 in NNW 5.0 mph 10.0 mph 88% 0.00 in BKN
09:15 42.7 °F 39.4 °F 30.09 in NW 3.0 mph 7.0 mph 88% 0.00 in BKN
09:30 42.7 °F 39.1 °F 30.09 in North 2.0 mph 12.0 mph 87% 0.00 in BKN
09:45 43.0 °F 39.1 °F 30.08 in NNW 3.0 mph 12.0 mph 86% 0.00 in BKN
10:00 43.5 °F 38.7 °F 30.08 in North 3.0 mph 13.0 mph 83% 0.00 in BKN
10:15 44.3 °F 38.5 °F 30.09 in NE 5.0 mph 10.0 mph 80% 0.00 in BKN
10:30 45.2 °F 39.1 °F 30.09 in NNW 5.0 mph 13.0 mph 79% 0.00 in BKN
10:45 46.3 °F 39.1 °F 30.10 in NNW 5.0 mph 10.0 mph 76% 0.00 in BKN
11:00 46.9 °F 38.7 °F 30.11 in NNW 3.0 mph 9.0 mph 73% 0.00 in BKN
11:15 47.2 °F 38.3 °F 30.11 in NW 7.0 mph 14.0 mph 71% 0.00 in BKN
11:30 48.4 °F 38.7 °F 30.10 in North 5.0 mph 10.0 mph 69% 0.00 in BKN
11:45 49.1 °F 39.0 °F 30.10 in North 2.0 mph 10.0 mph 68% 0.00 in BKN
12:00 49.5 °F 38.6 °F 30.09 in North 2.0 mph 12.0 mph 66% 0.00 in BKN
12:15 50.2 °F 38.5 °F 30.09 in North 2.0 mph 13.0 mph 64% 0.00 in SCT
12:30 50.6 °F 38.1 °F 30.09 in North 2.0 mph 15.0 mph 62% 0.00 in SCT
12:45 51.4 °F 37.5 °F 30.08 in NW 3.0 mph 13.0 mph 59% 0.00 in SCT
13:00 51.7 °F 37.4 °F 30.08 in NNW 3.0 mph 14.0 mph 58% 0.00 in SCT
13:15 52.6 °F 37.3 °F 30.08 in NW 3.0 mph 12.0 mph 56% 0.00 in SCT
13:30 52.9 °F 37.2 °F 30.08 in NW 6.0 mph 13.0 mph 55% 0.00 in SCT
13:45 53.2 °F 36.5 °F 30.08 in NNW 6.0 mph 10.0 mph 53% 0.00 in SCT
14:00 54.4 °F 37.6 °F 30.07 in NNW 2.0 mph 12.0 mph 53% 0.00 in SCT
14:15 55.0 °F 37.2 °F 30.07 in NNW 2.0 mph 12.0 mph 51% 0.00 in FEW
14:30 55.4 °F 36.0 °F 30.06 in NNW 5.0 mph 12.0 mph 48% 0.00 in FEW
14:45 55.1 °F 34.1 °F 30.06 in NNW 5.0 mph 13.0 mph 45% 0.00 in FEW
15:00 55.5 °F 34.5 °F 30.06 in NNW 7.0 mph 14.0 mph 45% 0.00 in FEW
15:15 55.6 °F 34.0 °F 30.06 in NNW 6.0 mph 12.0 mph 44% 0.00 in FEW
15:30 55.6 °F 34.6 °F 30.06 in NNW 5.0 mph 12.0 mph 45% 0.00 in FEW
15:45 55.3 °F 32.6 °F 30.06 in NW 6.0 mph 12.0 mph 42% 0.00 in FEW
16:00 55.3 °F 33.2 °F 30.06 in NNW 7.0 mph 17.0 mph 43% 0.00 in FEW
16:15 55.0 °F 32.3 °F 30.06 in North 5.0 mph 14.0 mph 42% 0.00 in FEW
16:30 55.1 °F 32.4 °F 30.07 in North 2.0 mph 16.0 mph 42% 0.00 in FEW
16:45 54.7 °F 32.0 °F 30.07 in NNW 5.0 mph 13.0 mph 42% 0.00 in FEW
17:00 53.9 °F 31.3 °F 30.08 in NW 5.0 mph 15.0 mph 42% 0.00 in FEW
17:15 53.4 °F 32.0 °F 30.09 in NNW 6.0 mph 17.0 mph 44% 0.00 in FEW
17:30 52.9 °F 31.6 °F 30.10 in NW 5.0 mph 15.0 mph 44% 0.00 in FEW
17:45 52.0 °F 31.3 °F 30.11 in NNW 7.0 mph 16.0 mph 45% 0.00 in FEW
18:00 51.2 °F 32.2 °F 30.12 in North 6.0 mph 14.0 mph 48% 0.00 in FEW
18:15 50.9 °F 30.8 °F 30.12 in North 2.0 mph 12.0 mph 46% 0.00 in FEW
18:30 50.7 °F 30.7 °F 30.13 in NNE 2.0 mph 9.0 mph 46% 0.00 in FEW
18:45 50.2 °F 30.2 °F 30.14 in NW 3.0 mph 12.0 mph 46% 0.00 in FEW
19:00 49.7 °F 29.7 °F 30.14 in NNW 2.0 mph 7.0 mph 46% 0.00 in FEW
19:15 48.7 °F 29.4 °F 30.15 in NNW 2.0 mph 5.0 mph 47% 0.00 in FEW
19:30 48.1 °F 28.8 °F 30.15 in North 2.0 mph 8.0 mph 47% 0.00 in FEW
19:45 47.6 °F 28.9 °F 30.16 in Calm   7.0 mph 48% 0.00 in FEW
20:00 46.9 °F 29.2 °F 30.17 in NNW 1.0 mph 6.0 mph 50% 0.00 in FEW
20:15 46.0 °F 30.3 °F 30.18 in NNW 2.0 mph 6.0 mph 54% 0.00 in FEW
20:30 45.5 °F 27.4 °F 30.19 in North 5.0 mph 9.0 mph 49% 0.00 in FEW
20:45 44.9 °F 26.4 °F 30.20 in NNW 3.0 mph 12.0 mph 48% 0.00 in FEW
21:00 44.5 °F 26.0 °F 30.21 in NNW 3.0 mph 15.0 mph 48% 0.00 in FEW
21:15 43.8 °F 25.9 °F 30.22 in NNW 6.0 mph 12.0 mph 49% 0.00 in CLR
21:30 43.2 °F 26.3 °F 30.23 in North 1.0 mph 12.0 mph 51% 0.00 in CLR
21:45 42.5 °F 25.7 °F 30.23 in NNW 2.0 mph 12.0 mph 51% 0.00 in CLR
22:00 42.0 °F 25.6 °F 30.24 in NNW 2.0 mph 10.0 mph 52% 0.00 in CLR
22:15 41.5 °F 25.2 °F 30.25 in NNW 1.0 mph 12.0 mph 52% 0.00 in CLR
22:30 40.9 °F 25.1 °F 30.25 in NNW 1.0 mph 7.0 mph 53% 0.00 in CLR
22:45 40.8 °F 24.5 °F 30.25 in NNW 3.0 mph 13.0 mph 52% 0.00 in CLR
23:00 40.4 °F 24.6 °F 30.25 in NNW 5.0 mph 12.0 mph 53% 0.00 in CLR
23:15 40.2 °F 24.4 °F 30.25 in NW 1.0 mph 11.0 mph 53% 0.00 in CLR
23:30 39.9 °F 24.1 °F 30.26 in NNW 1.0 mph 13.0 mph 53% 0.00 in CLR
23:45 39.6 °F 24.3 °F 30.26 in NW 2.0 mph 10.0 mph 54% 0.00 in CLR
TarryTown NY Weather
Compliments of Weather Underground - 1.5 mb